Time;durP1;ratioP1;P1;durP2;ratioP2;P2;SDS_P1;SDS_P2;PMS_P1;PMS_P2;Temp;Humidity;BMP_temperature;BMP_pressure;BME280_temperature;BME280_humidity;BME280_pressure;Samples;Min_cycle;Max_cycle;Signal;HPM_P1;HPM_P2
2023/06/12 00:00:09;;;;;;;0.50;0.40;;;;;;;19.35;100.00;94810.59;5111346;28;20482;-66
2023/06/12 00:02:39;;;;;;;0.73;0.50;;;;;;;18.86;100.00;94809.78;5112717;28;20446;-66
2023/06/12 00:05:08;;;;;;;0.70;0.70;;;;;;;18.61;100.00;94797.41;5103979;28;20977;-65
2023/06/12 00:07:37;;;;;;;0.60;0.40;;;;;;;18.50;100.00;94809.66;5112958;28;20951;-65
2023/06/12 00:10:06;;;;;;;0.80;0.80;;;;;;;18.51;100.00;94800.50;5086501;28;20493;-64
2023/06/12 00:12:34;;;;;;;1.07;0.63;;;;;;;18.73;100.00;94808.16;5112812;28;20471;-64
2023/06/12 00:15:03;;;;;;;0.50;0.40;;;;;;;18.30;100.00;94805.88;5113088;28;20493;-64
2023/06/12 00:17:32;;;;;;;0.70;0.40;;;;;;;18.45;100.00;94809.84;5112467;28;20944;-64
2023/06/12 00:20:04;;;;;;;1.00;0.43;;;;;;;18.88;100.00;94799.47;5112424;28;20471;-63
2023/06/12 00:22:36;;;;;;;1.90;0.60;;;;;;;19.06;100.00;94791.19;5111699;28;20459;-63
2023/06/12 00:25:05;;;;;;;0.40;0.30;;;;;;;19.05;100.00;94808.47;5111246;28;20451;-63
2023/06/12 00:27:33;;;;;;;1.07;0.40;;;;;;;19.09;100.00;94802.06;5111389;28;20518;-63
2023/06/12 00:30:01;;;;;;;0.47;0.40;;;;;;;19.09;100.00;94806.66;5111706;28;20516;-63
2023/06/12 00:32:30;;;;;;;1.00;0.50;;;;;;;19.13;100.00;94804.84;5112078;28;20435;-63
2023/06/12 00:34:58;;;;;;;0.60;0.40;;;;;;;19.12;100.00;94804.09;5113047;28;20585;-63
2023/06/12 00:37:29;;;;;;;2.73;0.50;;;;;;;19.18;100.00;94799.25;5112421;28;20442;-63
2023/06/12 00:39:57;;;;;;;0.50;0.50;;;;;;;19.06;100.00;94804.63;5098579;28;21070;-62
2023/06/12 00:42:31;;;;;;;0.50;0.40;;;;;;;18.95;100.00;94809.66;5112477;28;20435;-63
2023/06/12 00:44:59;;;;;;;0.87;0.50;;;;;;;18.98;100.00;94809.78;5112073;28;20512;-63
2023/06/12 00:47:28;;;;;;;0.83;0.40;;;;;;;18.73;100.00;94753.69;5111549;28;20458;-63
2023/06/12 00:49:58;;;;;;;0.50;0.30;;;;;;;19.09;100.00;94810.13;5111296;28;20440;-62
2023/06/12 00:52:34;;;;;;;0.60;0.43;;;;;;;18.94;100.00;94802.72;5111445;28;20443;-62
2023/06/12 00:55:04;;;;;;;0.47;0.30;;;;;;;18.12;100.00;94798.31;5110910;28;20450;-62
2023/06/12 00:57:33;;;;;;;2.73;0.60;;;;;;;17.68;100.00;94808.56;5111503;28;20436;-62
2023/06/12 01:00:05;;;;;;;0.80;0.60;;;;;;;17.68;100.00;94805.13;5111740;28;20485;-62
2023/06/12 01:02:33;;;;;;;0.60;0.43;;;;;;;17.92;100.00;94804.47;5111867;28;20436;-63
2023/06/12 01:05:02;;;;;;;0.60;0.60;;;;;;;18.13;100.00;94808.72;5113027;28;20435;-63
2023/06/12 01:07:40;;;;;;;0.53;0.53;;;;;;;18.39;100.00;94800.44;5131919;28;20463;-63
2023/06/12 01:10:13;;;;;;;0.97;0.67;;;;;;;18.38;100.00;94796.97;5111829;28;20470;-63
2023/06/12 01:12:43;;;;;;;0.80;0.60;;;;;;;18.35;100.00;94802.22;5111054;28;21089;-62
2023/06/12 01:15:12;;;;;;;0.50;0.40;;;;;;;18.23;100.00;94791.44;5112142;28;20436;-63
2023/06/12 01:17:41;;;;;;;0.73;0.73;;;;;;;18.04;100.00;94788.44;5111590;28;20492;-63
2023/06/12 01:20:12;;;;;;;0.67;0.50;;;;;;;18.16;100.00;94789.31;5111940;28;20554;-63
2023/06/12 01:22:50;;;;;;;0.50;0.30;;;;;;;17.88;100.00;94795.53;5112106;28;20439;-63
2023/06/12 01:25:51;;;;;;;0.60;0.33;;;;;;;18.33;100.00;94788.34;5111921;28;20439;-63
2023/06/12 01:28:40;;;;;;;1.07;0.67;;;;;;;17.91;100.00;94801.00;5087606;28;20471;-64
2023/06/12 01:31:15;;;;;;;0.83;0.83;;;;;;;18.04;100.00;94805.31;5110260;28;20952;-64
2023/06/12 01:33:54;;;;;;;0.73;0.73;;;;;;;18.33;100.00;94793.72;5111530;28;20430;-63
2023/06/12 01:36:27;;;;;;;0.70;0.70;;;;;;;18.66;100.00;94804.47;5111569;28;20435;-64
2023/06/12 01:39:00;;;;;;;0.83;0.80;;;;;;;18.79;100.00;94806.06;5110614;28;20848;-64
2023/06/12 01:41:30;;;;;;;0.60;0.40;;;;;;;18.83;100.00;94813.13;5110494;28;20575;-64
2023/06/12 01:44:08;;;;;;;2.23;0.40;;;;;;;18.83;100.00;94812.31;5109931;28;20436;-64
2023/06/12 01:46:36;;;;;;;0.50;0.40;;;;;;;18.97;100.00;94808.19;5111031;28;20443;-64
2023/06/12 01:49:07;;;;;;;0.40;0.20;;;;;;;19.10;100.00;94810.91;5110880;28;20476;-63
2023/06/12 01:51:36;;;;;;;0.50;0.30;;;;;;;18.65;100.00;94817.09;5110288;28;20862;-63
2023/06/12 01:54:04;;;;;;;0.60;0.37;;;;;;;18.32;100.00;94821.66;5110314;28;20479;-64
2023/06/12 01:56:32;;;;;;;0.43;0.30;;;;;;;18.00;100.00;94827.75;5110794;28;20474;-62
2023/06/12 01:59:01;;;;;;;0.50;0.30;;;;;;;18.03;100.00;94821.75;5110891;28;20450;-63
2023/06/12 02:01:31;;;;;;;0.40;0.37;;;;;;;18.39;100.00;94821.91;5110451;28;20475;-62
2023/06/12 02:04:00;;;;;;;0.60;0.60;;;;;;;18.52;100.00;94828.13;5110643;28;20859;-63
2023/06/12 02:06:29;;;;;;;0.97;0.53;;;;;;;18.59;100.00;94818.44;5110295;28;20936;-62
2023/06/12 02:08:58;;;;;;;0.43;0.30;;;;;;;18.54;100.00;94821.31;5111354;28;21073;-63
2023/06/12 02:11:26;;;;;;;0.50;0.50;;;;;;;18.34;100.00;94825.56;5110355;28;20872;-62
2023/06/12 02:13:54;;;;;;;0.40;0.30;;;;;;;18.26;100.00;94833.72;5111359;28;20979;-62
2023/06/12 02:16:23;;;;;;;0.40;0.30;;;;;;;18.23;100.00;94831.69;5114602;28;20443;-61
2023/06/12 02:18:51;;;;;;;0.47;0.43;;;;;;;18.53;100.00;94818.97;5115260;28;20493;-62
2023/06/12 02:21:20;;;;;;;0.50;0.50;;;;;;;18.31;100.00;94828.94;5115495;28;20470;-61
2023/06/12 02:23:50;;;;;;;0.80;0.80;;;;;;;18.12;100.00;94833.19;5115779;28;20439;-62
2023/06/12 02:26:18;;;;;;;0.60;0.40;;;;;;;17.97;100.00;94839.13;5115489;28;20478;-62
2023/06/12 02:29:06;;;;;;;0.60;0.60;;;;;;;17.67;100.00;94836.50;5114798;28;20427;-61
2023/06/12 02:31:34;;;;;;;0.50;0.30;;;;;;;18.11;100.00;94828.94;5115108;28;20500;-62
2023/06/12 02:34:02;;;;;;;0.60;0.60;;;;;;;18.29;100.00;94836.50;5114544;28;20908;-63
2023/06/12 02:36:30;;;;;;;0.50;0.30;;;;;;;18.53;100.00;94829.69;5115057;28;20439;-62
2023/06/12 02:39:01;;;;;;;0.40;0.30;;;;;;;18.14;100.00;94828.28;5114753;28;20825;-63
2023/06/12 02:41:29;;;;;;;0.40;0.30;;;;;;;18.31;100.00;94836.19;5114883;28;20479;-62
2023/06/12 02:43:57;;;;;;;7.03;0.50;;;;;;;18.05;100.00;94843.66;5114545;28;20435;-63
2023/06/12 02:46:26;;;;;;;0.50;0.30;;;;;;;18.01;100.00;94840.06;5114930;28;20439;-63
2023/06/12 02:48:54;;;;;;;0.50;0.30;;;;;;;17.77;100.00;94833.44;5114581;28;20935;-62
2023/06/12 02:51:23;;;;;;;1.43;1.00;;;;;;;17.73;100.00;94851.25;5114499;28;20427;-62
2023/06/12 02:53:54;;;;;;;0.67;0.63;;;;;;;17.77;100.00;94857.56;5114680;28;20906;-62
2023/06/12 02:56:26;;;;;;;0.80;0.40;;;;;;;17.75;100.00;94856.31;5114716;28;20471;-63
2023/06/12 02:58:55;;;;;;;0.80;0.80;;;;;;;17.94;100.00;94850.50;5114608;28;20473;-62
2023/06/12 03:01:23;;;;;;;0.50;0.40;;;;;;;17.84;100.00;94858.94;5114087;28;20472;-63
2023/06/12 03:03:52;;;;;;;6.43;0.90;;;;;;;17.90;100.00;94869.16;5114253;28;20791;-63
2023/06/12 03:06:26;;;;;;;0.50;0.40;;;;;;;17.72;100.00;94873.84;5114447;28;20459;-62
2023/06/12 03:08:54;;;;;;;0.50;0.50;;;;;;;17.84;100.00;94869.66;5113944;28;20943;-63
2023/06/12 03:11:25;;;;;;;6.37;0.60;;;;;;;17.70;100.00;94877.94;5113171;28;20844;-62
2023/06/12 03:13:53;;;;;;;0.60;0.40;;;;;;;17.95;100.00;94884.25;5114199;28;20443;-62
2023/06/12 03:16:22;;;;;;;0.60;0.50;;;;;;;18.05;100.00;94878.50;5115694;28;20428;-61
2023/06/12 03:18:50;;;;;;;0.50;0.30;;;;;;;18.28;100.00;94877.88;5133414;28;20439;-62
2023/06/12 03:21:19;;;;;;;0.70;0.40;;;;;;;18.15;100.00;94838.69;5113800;28;20471;-65
2023/06/12 03:23:47;;;;;;;0.60;0.40;;;;;;;18.28;100.00;94867.13;5114343;28;20500;-62
2023/06/12 03:26:16;;;;;;;0.50;0.37;;;;;;;17.94;100.00;94890.72;5113397;28;20440;-62
2023/06/12 03:28:46;;;;;;;0.40;0.40;;;;;;;18.17;100.00;94881.25;5113826;28;20443;-61
2023/06/12 03:31:15;;;;;;;0.43;0.30;;;;;;;18.32;100.00;94880.66;5114099;28;20469;-63
2023/06/12 03:33:43;;;;;;;1.17;0.30;;;;;;;18.21;100.00;94882.19;5113836;28;20936;-62
2023/06/12 03:36:12;;;;;;;0.40;0.30;;;;;;;18.38;100.00;94879.38;5113621;28;20436;-62
2023/06/12 03:38:40;;;;;;;0.90;0.90;;;;;;;18.04;100.00;94883.09;5113567;28;20440;-63
2023/06/12 03:41:08;;;;;;;0.40;0.30;;;;;;;18.17;100.00;94876.69;5114083;28;20503;-63
2023/06/12 03:43:37;;;;;;;0.80;0.80;;;;;;;18.10;100.00;94878.31;5113576;28;20436;-63
2023/06/12 03:46:07;;;;;;;0.93;0.60;;;;;;;18.10;100.00;94860.34;5113598;28;20440;-63
2023/06/12 03:48:35;;;;;;;0.90;0.87;;;;;;;18.28;100.00;94866.34;5113254;28;20496;-63
2023/06/12 03:51:03;;;;;;;0.77;0.40;;;;;;;18.36;100.00;94871.66;5113672;28;20472;-63
2023/06/12 03:53:32;;;;;;;0.60;0.50;;;;;;;18.42;100.00;94874.13;5113713;28;20439;-62
2023/06/12 03:56:01;;;;;;;1.70;1.70;;;;;;;18.47;100.00;94869.38;5113887;28;20495;-63
2023/06/12 03:58:29;;;;;;;0.67;0.40;;;;;;;18.26;100.00;94871.25;5113299;28;20470;-63
2023/06/12 04:00:57;;;;;;;1.77;1.57;;;;;;;17.57;100.00;94804.72;5113361;28;20468;-65
2023/06/12 04:03:27;;;;;;;0.93;0.53;;;;;;;18.33;100.00;94874.19;5112946;28;20435;-65
2023/06/12 04:05:56;;;;;;;0.53;0.50;;;;;;;18.26;100.00;94873.94;5113456;28;20435;-66
2023/06/12 04:08:24;;;;;;;0.53;0.53;;;;;;;18.18;100.00;94874.78;5113110;28;20439;-65
2023/06/12 04:10:53;;;;;;;0.50;0.50;;;;;;;17.99;100.00;94874.44;5113374;28;20943;-65
2023/06/12 04:13:21;;;;;;;1.37;0.40;;;;;;;18.07;100.00;94855.63;5112936;28;20485;-65
2023/06/12 04:15:50;;;;;;;0.50;0.43;;;;;;;18.53;100.00;94873.44;5113336;28;20458;-66
2023/06/12 04:18:21;;;;;;;0.50;0.40;;;;;;;18.81;100.00;94869.06;5113323;28;20440;-66
2023/06/12 04:20:51;;;;;;;0.40;0.30;;;;;;;18.95;100.00;94866.84;5112469;28;20956;-66
2023/06/12 04:23:19;;;;;;;1.40;0.73;;;;;;;18.50;100.00;94871.41;5113196;28;20807;-67
2023/06/12 04:25:48;;;;;;;0.73;0.73;;;;;;;18.67;100.00;94855.13;5112513;28;21001;-68
2023/06/12 04:28:16;;;;;;;0.73;0.73;;;;;;;18.73;100.00;94866.44;5113073;28;20467;-68
2023/06/12 04:30:45;;;;;;;0.97;0.53;;;;;;;18.62;100.00;94849.97;5112282;28;20528;-67
2023/06/12 04:33:14;;;;;;;0.40;0.30;;;;;;;18.95;100.00;94860.69;5112743;28;20675;-69
2023/06/12 04:35:45;;;;;;;0.50;0.47;;;;;;;19.16;100.00;94869.47;5112550;28;20440;-69
2023/06/12 04:38:16;;;;;;;0.63;0.60;;;;;;;18.81;100.00;94869.06;5111655;28;20439;-69
2023/06/12 04:40:45;;;;;;;0.70;0.50;;;;;;;18.83;100.00;94864.13;5112475;28;20500;-68
2023/06/12 04:43:13;;;;;;;0.57;0.47;;;;;;;18.87;100.00;94866.94;5112111;28;20594;-69
2023/06/12 04:45:44;;;;;;;0.50;0.50;;;;;;;18.99;100.00;94869.66;5112581;28;20431;-69
2023/06/12 04:48:13;;;;;;;1.07;0.70;;;;;;;19.09;100.00;94855.81;5112319;28;20929;-68
2023/06/12 04:50:42;;;;;;;0.50;0.43;;;;;;;19.20;100.00;94858.84;5111791;28;20436;-69
2023/06/12 04:53:12;;;;;;;0.87;0.40;;;;;;;19.58;100.00;94854.72;5111945;28;20439;-67
2023/06/12 04:55:44;;;;;;;0.60;0.47;;;;;;;19.82;100.00;94858.53;5112517;28;20435;-68
2023/06/12 04:58:12;;;;;;;0.60;0.30;;;;;;;19.92;100.00;94845.41;5112037;28;20447;-67
2023/06/12 05:00:41;;;;;;;1.00;0.90;;;;;;;19.59;100.00;94864.38;5112408;28;20479;-67
2023/06/12 05:03:09;;;;;;;0.40;0.30;;;;;;;19.53;100.00;94867.63;5112176;28;20516;-67
2023/06/12 05:05:38;;;;;;;0.47;0.40;;;;;;;19.70;100.00;94862.03;5112680;28;20508;-67
2023/06/12 05:08:06;;;;;;;0.50;0.30;;;;;;;19.77;100.00;94870.31;5111556;28;20820;-66
2023/06/12 05:10:34;;;;;;;0.40;0.40;;;;;;;19.78;100.00;94865.72;5112186;28;20447;-67
2023/06/12 05:13:04;;;;;;;0.50;0.40;;;;;;;19.88;100.00;94863.34;5111894;28;20485;-66
2023/06/12 05:15:33;;;;;;;0.40;0.30;;;;;;;19.88;100.00;94874.09;5112182;28;20432;-66
2023/06/12 05:18:01;;;;;;;0.50;0.40;;;;;;;19.70;100.00;94866.59;5112115;28;20447;-65
2023/06/12 05:20:30;;;;;;;0.50;0.50;;;;;;;19.62;100.00;94863.69;5111420;28;20452;-65
2023/06/12 05:22:58;;;;;;;0.50;0.50;;;;;;;19.51;100.00;94870.63;5111754;28;20839;-65
2023/06/12 05:25:27;;;;;;;0.60;0.60;;;;;;;19.54;100.00;94869.19;5112849;28;20440;-65
2023/06/12 05:27:55;;;;;;;3.17;1.67;;;;;;;19.84;100.00;94865.13;5124269;28;20447;-66
2023/06/12 05:30:25;;;;;;;0.83;0.83;;;;;;;19.72;100.00;94864.34;5116169;28;20463;-65
2023/06/12 05:32:53;;;;;;;0.70;0.70;;;;;;;19.82;100.00;94859.31;5112404;28;20998;-65
2023/06/12 05:35:22;;;;;;;0.60;0.60;;;;;;;19.98;100.00;94865.56;5112186;28;20454;-64
2023/06/12 05:37:50;;;;;;;0.60;0.50;;;;;;;20.31;100.00;94865.41;5111917;28;20447;-64
2023/06/12 05:40:19;;;;;;;2.40;1.23;;;;;;;20.01;100.00;94864.88;5111366;28;20439;-63
2023/06/12 05:42:47;;;;;;;1.10;0.50;;;;;;;19.73;100.00;94874.78;5111723;28;20999;-64
2023/06/12 05:45:16;;;;;;;1.43;0.60;;;;;;;19.49;100.00;94872.88;5111549;28;20432;-65
2023/06/12 05:47:46;;;;;;;1.23;1.13;;;;;;;19.84;100.00;94869.72;5111253;28;20500;-65
2023/06/12 05:50:19;;;;;;;3.13;0.90;;;;;;;20.22;100.00;94876.28;5115720;28;20439;-64
2023/06/12 05:52:47;;;;;;;1.43;1.33;;;;;;;19.96;100.00;94837.44;5115321;28;20443;-64
2023/06/12 05:55:17;;;;;;;1.13;1.03;;;;;;;19.85;100.00;94879.38;5115270;28;20519;-65
2023/06/12 05:57:45;;;;;;;0.60;0.60;;;;;;;20.08;100.00;94883.94;5116004;28;20456;-64
2023/06/12 06:00:15;;;;;;;1.53;1.23;;;;;;;20.26;100.00;94885.25;5115892;28;20446;-64
2023/06/12 06:02:45;;;;;;;1.17;0.80;;;;;;;20.52;100.00;94882.16;5115602;27;21053;-64
2023/06/12 06:05:13;;;;;;;0.50;0.50;;;;;;;20.42;100.00;94890.72;5115839;28;20440;-63
2023/06/12 06:07:42;;;;;;;0.80;0.80;;;;;;;19.89;100.00;94881.03;5115366;28;21043;-62
2023/06/12 06:10:11;;;;;;;6.53;0.77;;;;;;;19.49;100.00;94883.63;5115575;28;20472;-63
2023/06/12 06:12:39;;;;;;;1.47;1.13;;;;;;;19.81;100.00;94884.63;5115591;28;20969;-64
2023/06/12 06:15:10;;;;;;;0.97;0.93;;;;;;;19.92;100.00;94874.19;5115792;28;20489;-63
2023/06/12 06:17:38;;;;;;;1.57;0.70;;;;;;;20.69;100.00;94881.09;5115208;28;20871;-62
2023/06/12 06:20:11;;;;;;;0.70;0.50;;;;;;;21.16;100.00;94884.69;5115516;27;20467;-63
2023/06/12 06:22:41;;;;;;;0.50;0.40;;;;;;;21.61;100.00;94864.59;5115126;28;20539;-63
2023/06/12 06:25:10;;;;;;;0.50;0.50;;;;;;;21.17;100.00;94885.47;5115492;28;20959;-63
2023/06/12 06:27:38;;;;;;;0.40;0.30;;;;;;;21.49;100.00;94885.16;5115274;28;20435;-62
2023/06/12 06:30:08;;;;;;;0.90;0.90;;;;;;;20.69;100.00;94878.41;5115043;28;20479;-62
2023/06/12 06:32:36;;;;;;;0.77;0.77;;;;;;;20.59;100.00;94876.19;5115106;28;20504;-62
2023/06/12 06:35:05;;;;;;;0.67;0.67;;;;;;;21.50;100.00;94878.59;5115319;28;20438;-62
2023/06/12 06:37:35;;;;;;;0.50;0.30;;;;;;;21.88;100.00;94875.28;5115250;28;20427;-62
2023/06/12 06:40:05;;;;;;;2.20;0.83;;;;;;;21.56;100.00;94870.25;5115102;28;20978;-61
2023/06/12 06:42:34;;;;;;;0.97;0.43;;;;;;;21.70;100.00;94884.88;5114837;28;20463;-61
2023/06/12 06:45:02;;;;;;;1.10;1.10;;;;;;;21.68;100.00;94884.44;5114996;28;20986;-61
2023/06/12 06:47:31;;;;;;;0.93;0.90;;;;;;;21.23;100.00;94886.78;5114919;28;20436;-60
2023/06/12 06:49:59;;;;;;;0.60;0.43;;;;;;;20.86;100.00;94891.56;5114478;28;20440;-59
2023/06/12 06:52:28;;;;;;;0.50;0.40;;;;;;;21.44;100.00;94885.41;5115315;28;20468;-60
2023/06/12 06:54:58;;;;;;;0.83;0.83;;;;;;;22.08;98.17;94881.53;5114535;28;20439;-60
2023/06/12 06:57:26;;;;;;;0.67;0.67;;;;;;;21.65;100.00;94884.38;5113282;28;20447;-60
2023/06/12 06:59:57;;;;;;;0.40;0.30;;;;;;;22.41;100.00;94884.59;5113436;28;20435;-60
2023/06/12 07:02:26;;;;;;;0.80;0.50;;;;;;;22.21;97.83;94874.09;5114537;28;20512;-60
2023/06/12 07:04:54;;;;;;;5.53;0.83;;;;;;;22.17;98.22;94875.94;5113950;28;20442;-60
2023/06/12 07:07:23;;;;;;;0.60;0.40;;;;;;;22.23;92.01;94875.31;5114453;28;20450;-59
2023/06/12 07:09:51;;;;;;;0.50;0.40;;;;;;;22.71;91.29;94872.09;5114202;28;20439;-59
2023/06/12 07:12:21;;;;;;;0.77;0.77;;;;;;;22.34;90.29;94875.56;5114502;28;20439;-59
2023/06/12 07:14:49;;;;;;;0.50;0.30;;;;;;;23.00;86.39;94868.00;5114548;28;20443;-59
2023/06/12 07:17:18;;;;;;;0.53;0.50;;;;;;;22.88;88.94;94873.56;5114289;28;20951;-59
2023/06/12 07:19:46;;;;;;;0.50;0.40;;;;;;;23.16;83.08;94868.69;5113935;28;21170;-60
2023/06/12 07:22:14;;;;;;;0.40;0.40;;;;;;;23.56;79.45;94870.94;5114594;28;20516;-60
2023/06/12 07:24:43;;;;;;;1.20;1.10;;;;;;;23.21;81.73;94860.28;5113922;28;20483;-60
2023/06/12 07:27:11;;;;;;;0.60;0.60;;;;;;;23.51;81.58;94852.31;5114279;28;20436;-60
2023/06/12 07:29:41;;;;;;;0.90;0.87;;;;;;;22.87;79.20;94863.91;5087056;28;20524;-59
2023/06/12 07:32:10;;;;;;;1.40;0.83;;;;;;;22.77;82.98;94865.25;5114174;28;20447;-60
2023/06/12 07:34:39;;;;;;;0.50;0.40;;;;;;;23.11;83.22;94855.47;5114326;28;20440;-60
2023/06/12 07:37:08;;;;;;;0.60;0.53;;;;;;;23.26;81.88;94856.50;5114010;28;20809;-60
2023/06/12 07:39:37;;;;;;;0.70;0.70;;;;;;;23.01;81.60;94858.78;5114628;28;20436;-62
2023/06/12 07:42:06;;;;;;;0.70;0.50;;;;;;;23.44;80.43;94854.13;5116934;28;20432;-62
2023/06/12 07:44:35;;;;;;;0.60;0.43;;;;;;;23.39;82.80;94855.22;5114415;28;20514;-62
2023/06/12 07:47:05;;;;;;;1.43;1.00;;;;;;;23.07;84.83;94856.56;5113795;27;20979;-63
2023/06/12 07:49:33;;;;;;;0.83;0.83;;;;;;;23.37;82.33;94860.22;5113357;28;20472;-61
2023/06/12 07:52:01;;;;;;;0.70;0.67;;;;;;;23.50;84.21;94850.78;5113485;28;20435;-50
2023/06/12 07:54:30;;;;;;;0.50;0.40;;;;;;;24.21;78.38;94841.03;5113751;28;20442;-51
2023/06/12 07:56:58;;;;;;;0.57;0.57;;;;;;;24.46;78.90;94845.59;5113539;28;20443;-49
2023/06/12 07:59:27;;;;;;;1.67;0.73;;;;;;;24.92;73.39;94840.72;5113820;28;20489;-50
2023/06/12 08:01:55;;;;;;;0.73;0.50;;;;;;;24.92;73.36;94832.59;5113129;28;20496;-50
2023/06/12 08:04:26;;;;;;;0.60;0.60;;;;;;;25.44;69.66;94844.34;5105910;28;20476;-51
2023/06/12 08:06:54;;;;;;;0.90;0.57;;;;;;;26.28;72.35;94828.69;5113398;28;20435;-51
2023/06/12 08:09:23;;;;;;;0.40;0.30;;;;;;;26.15;68.87;94826.69;5113049;28;20461;-52
2023/06/12 08:11:52;;;;;;;0.77;0.77;;;;;;;26.63;68.31;94825.34;5112348;28;20810;-51
2023/06/12 08:14:21;;;;;;;0.40;0.33;;;;;;;26.05;67.69;94830.06;5112832;28;20440;-51
2023/06/12 08:16:50;;;;;;;0.57;0.47;;;;;;;26.81;67.86;94817.28;5113093;28;20453;-51
2023/06/12 08:19:19;;;;;;;0.90;0.90;;;;;;;26.96;63.48;94816.94;5112671;28;20444;-51
2023/06/12 08:21:49;;;;;;;0.80;0.80;;;;;;;26.83;65.52;94821.19;5113156;28;20517;-51
2023/06/12 08:24:17;;;;;;;0.40;0.30;;;;;;;28.13;58.68;94811.56;5112232;28;20480;-50
2023/06/12 08:26:47;;;;;;;0.50;0.50;;;;;;;27.15;59.47;94817.75;5113008;28;20564;-50
2023/06/12 08:29:15;;;;;;;0.50;0.40;;;;;;;27.73;59.42;94817.41;5112963;28;20544;-51
2023/06/12 08:31:43;;;;;;;0.50;0.50;;;;;;;27.57;61.18;94810.44;5112508;28;20435;-51
2023/06/12 08:34:12;;;;;;;0.60;0.60;;;;;;;28.68;56.65;94806.31;5108022;28;20558;-51
2023/06/12 08:36:40;;;;;;;0.70;0.60;;;;;;;27.75;58.56;94812.34;5104430;28;20505;-51
2023/06/12 08:39:10;;;;;;;2.13;0.73;;;;;;;26.97;60.29;94807.59;5112740;28;20450;-51
2023/06/12 08:41:48;;;;;;;0.67;0.67;;;;;;;28.43;59.50;94808.34;5112411;28;20948;-51
2023/06/12 08:44:17;;;;;;;0.50;0.43;;;;;;;29.38;55.55;94805.13;5112235;28;20471;-51
2023/06/12 08:46:46;;;;;;;0.40;0.30;;;;;;;29.21;55.63;94803.31;5112232;28;21036;-51
2023/06/12 08:49:15;;;;;;;0.70;0.70;;;;;;;28.78;55.96;94794.56;5112874;28;20479;-51
2023/06/12 08:51:45;;;;;;;0.53;0.40;;;;;;;28.86;57.22;94804.28;5112602;28;20458;-51
2023/06/12 08:54:16;;;;;;;0.40;0.30;;;;;;;29.94;55.22;94801.19;5112557;28;20478;-51
2023/06/12 08:56:45;;;;;;;0.50;0.40;;;;;;;29.62;50.66;94760.47;5112844;28;20866;-52
2023/06/12 08:59:14;;;;;;;1.00;0.70;;;;;;;29.19;50.70;94797.47;5112352;28;20435;-51
2023/06/12 09:01:45;;;;;;;0.60;0.47;;;;;;;28.99;53.23;94791.75;5112120;28;20850;-51
2023/06/12 09:04:41;;;;;;;0.83;0.63;;;;;;;29.50;53.95;94785.53;5104269;28;21098;-51
2023/06/12 09:07:11;;;;;;;0.40;0.30;;;;;;;29.98;53.25;94788.28;5112696;28;20447;-52
2023/06/12 09:09:43;;;;;;;0.60;0.60;;;;;;;29.95;52.45;94775.41;5111638;28;20444;-51
2023/06/12 09:12:13;;;;;;;0.60;0.50;;;;;;;29.60;54.72;94775.72;5112175;28;20485;-51
2023/06/12 09:14:44;;;;;;;0.60;0.60;;;;;;;29.56;52.97;94775.75;5112098;28;20435;-58
2023/06/12 09:17:13;;;;;;;0.83;0.60;;;;;;;30.46;50.61;94769.03;5112300;28;20500;-57
2023/06/12 09:19:43;;;;;;;0.50;0.50;;;;;;;31.32;49.89;94754.53;5111657;28;20966;-57
2023/06/12 09:22:12;;;;;;;0.50;0.50;;;;;;;31.23;49.54;94748.81;5112075;28;20439;-58
2023/06/12 09:24:42;;;;;;;1.67;1.17;;;;;;;30.37;49.74;94758.56;5110891;28;20471;-56
2023/06/12 09:27:12;;;;;;;0.97;0.87;;;;;;;29.15;50.85;94747.56;5111580;28;20555;-57
2023/06/12 09:29:42;;;;;;;0.40;0.30;;;;;;;29.98;51.99;94758.22;5111313;28;20471;-57
2023/06/12 09:32:13;;;;;;;0.50;0.50;;;;;;;31.14;50.73;94753.25;5111490;28;20453;-58
2023/06/12 09:34:46;;;;;;;1.30;0.40;;;;;;;31.95;48.92;94749.94;5111969;28;20445;-59
2023/06/12 09:37:16;;;;;;;0.63;0.60;;;;;;;30.29;48.71;94754.34;5111726;28;20471;-60
2023/06/12 09:39:46;;;;;;;0.90;0.43;;;;;;;30.06;50.17;94743.28;5111657;28;20432;-58
2023/06/12 09:42:17;;;;;;;0.70;0.63;;;;;;;30.10;49.97;94739.34;5112258;28;20484;-58
2023/06/12 09:44:45;;;;;;;0.40;0.30;;;;;;;29.21;52.28;94737.81;5111310;28;20470;-59
2023/06/12 09:47:15;;;;;;;0.30;0.20;;;;;;;29.36;52.04;94748.22;5111126;28;20474;-62
2023/06/12 09:49:46;;;;;;;0.50;0.30;;;;;;;29.02;52.46;94744.53;5111971;28;20848;-51
2023/06/12 09:52:16;;;;;;;0.40;0.40;;;;;;;30.22;50.24;94734.50;5111483;28;20442;-50
2023/06/12 09:54:47;;;;;;;1.80;0.80;;;;;;;29.40;49.26;94726.31;5111539;28;20447;-50
2023/06/12 09:57:16;;;;;;;3.13;0.70;;;;;;;28.49;52.12;94736.63;5085806;28;20522;-51
2023/06/12 09:59:47;;;;;;;0.43;0.30;;;;;;;28.35;53.11;94742.16;5111458;28;20435;-51
2023/06/12 10:02:17;;;;;;;0.70;0.60;;;;;;;27.69;55.23;94690.22;5111996;28;20435;-51
2023/06/12 10:04:54;;;;;;;0.40;0.40;;;;;;;27.82;55.73;94728.69;5111004;28;20467;-51
2023/06/12 10:07:27;;;;;;;0.47;0.47;;;;;;;27.29;56.05;94738.84;5111343;28;20504;-51
2023/06/12 10:09:58;;;;;;;0.43;0.43;;;;;;;26.70;56.40;94735.66;5111901;28;20465;-51
2023/06/12 10:12:27;;;;;;;0.60;0.60;;;;;;;26.96;57.08;94726.41;5111115;28;20481;-51
2023/06/12 10:14:58;;;;;;;0.40;0.30;;;;;;;27.02;59.86;94733.78;5111223;28;20964;-50
2023/06/12 10:17:27;;;;;;;0.60;0.40;;;;;;;27.12;62.26;94723.31;5111144;28;20467;-57
2023/06/12 10:20:00;;;;;;;1.17;0.57;;;;;;;26.78;65.41;94736.47;5111385;28;20436;-57
2023/06/12 10:22:29;;;;;;;0.40;0.30;;;;;;;26.70;65.91;94735.66;5111048;28;20498;-56
2023/06/12 10:24:59;;;;;;;0.90;0.90;;;;;;;25.55;70.66;94734.72;5111153;28;20529;-55
2023/06/12 10:27:28;;;;;;;2.57;0.40;;;;;;;25.07;69.39;94696.00;5111177;28;20848;-55
2023/06/12 10:29:58;;;;;;;0.50;0.37;;;;;;;25.54;69.44;94725.06;5111207;28;21084;-55
2023/06/12 10:32:31;;;;;;;1.37;0.50;;;;;;;25.12;72.83;94717.34;5110930;28;20444;-55
2023/06/12 10:35:01;;;;;;;0.60;0.47;;;;;;;24.78;77.62;94729.47;5111753;28;20462;-55
2023/06/12 10:37:31;;;;;;;1.90;0.73;;;;;;;24.87;77.93;94740.00;5114691;28;20931;-55
2023/06/12 10:40:10;;;;;;;1.00;1.00;;;;;;;24.48;81.14;94728.75;5115096;28;20821;-55
2023/06/12 10:42:44;;;;;;;1.43;0.93;;;;;;;24.62;80.44;94734.28;5089165;28;20463;-54
2023/06/12 10:45:17;;;;;;;1.33;0.47;;;;;;;24.47;85.10;94729.88;5114381;28;20578;-55
2023/06/12 10:48:11;;;;;;;0.40;0.40;;;;;;;24.62;73.93;94709.91;5114618;28;20955;-55
2023/06/12 10:50:44;;;;;;;0.40;0.30;;;;;;;24.86;69.98;94703.19;5114763;28;20962;-56
2023/06/12 10:53:15;;;;;;;0.50;0.40;;;;;;;24.82;71.02;94705.84;5114811;28;20841;-55
2023/06/12 10:55:45;;;;;;;0.70;0.57;;;;;;;24.84;70.57;94708.22;5114844;28;20428;-55
2023/06/12 10:58:15;;;;;;;0.40;0.30;;;;;;;25.34;70.89;94693.88;5114394;28;20462;-59
2023/06/12 11:00:48;;;;;;;0.50;0.40;;;;;;;26.58;68.75;94695.25;5114530;28;20435;-58
2023/06/12 11:03:18;;;;;;;0.50;0.47;;;;;;;28.01;68.12;94692.84;5114167;28;20514;-59
2023/06/12 11:05:49;;;;;;;0.43;0.40;;;;;;;29.09;58.74;94676.28;5114933;28;20484;-59
2023/06/12 11:08:17;;;;;;;0.30;0.30;;;;;;;29.63;55.19;94685.53;5114090;28;20440;-52
2023/06/12 11:10:47;;;;;;;0.83;0.40;;;;;;;29.07;55.27;94686.81;5114119;28;20440;-52
2023/06/12 11:13:15;;;;;;;0.63;0.57;;;;;;;29.47;54.30;94675.16;5114432;28;20440;-52
2023/06/12 11:15:46;;;;;;;0.43;0.43;;;;;;;29.86;51.41;94671.28;5114081;28;20442;-51
2023/06/12 11:18:15;;;;;;;0.40;0.30;;;;;;;30.83;50.75;94664.16;5113998;28;20451;-51
2023/06/12 11:20:44;;;;;;;0.50;0.30;;;;;;;31.87;46.02;94662.81;5114224;28;20471;-52
2023/06/12 11:23:12;;;;;;;2.10;0.50;;;;;;;30.47;50.94;94656.47;5088040;28;20435;-52
2023/06/12 11:25:45;;;;;;;0.37;0.30;;;;;;;31.28;46.48;94655.25;5114494;28;20786;-52
2023/06/12 11:28:19;;;;;;;0.30;0.30;;;;;;;31.73;44.37;94638.41;5114162;28;20440;-52
2023/06/12 11:30:48;;;;;;;2.13;0.40;;;;;;;31.93;44.28;94565.16;5113266;28;21059;-53
2023/06/12 11:33:24;;;;;;;1.17;0.40;;;;;;;32.77;43.16;94646.81;5113892;28;20782;-52
2023/06/12 11:35:59;;;;;;;0.73;0.50;;;;;;;32.55;43.01;94655.56;5113671;28;20435;-52
2023/06/12 11:38:27;;;;;;;0.97;0.60;;;;;;;31.99;42.72;94656.72;5114082;28;20439;-52
2023/06/12 11:40:59;;;;;;;0.50;0.50;;;;;;;32.24;39.24;94661.69;5114198;28;20481;-52